TimeCST,TemperatureF,Dew PointF,Humidity,Sea Level PressureIn,VisibilityMPH,Wind Direction,Wind SpeedMPH,Gust SpeedMPH,PrecipitationIn,Events,Conditions,WindDirDegrees,DateUTC
12:14 AM,33.8,26.6,75,30.11,10.0,South,15.0,-,N/A,,Clear,170,2013-01-10 06:14:00
12:34 AM,33.8,26.6,75,30.11,10.0,SSE,16.1,-,N/A,,Clear,160,2013-01-10 06:34:00
12:54 AM,33.8,26.6,75,30.11,10.0,SSE,13.8,20.7,N/A,,Clear,160,2013-01-10 06:54:00
1:13 AM,33.8,26.6,75,30.11,10.0,SSE,12.7,18.4,N/A,,Clear,160,2013-01-10 07:13:00
1:33 AM,33.8,26.6,75,30.11,10.0,SSE,13.8,20.7,N/A,,Clear,160,2013-01-10 07:33:00
1:53 AM,35.6,26.6,70,30.11,10.0,South,12.7,-,N/A,,Clear,180,2013-01-10 07:53:00
2:13 AM,35.6,26.6,70,30.11,10.0,South,15.0,-,N/A,,Clear,180,2013-01-10 08:13:00
2:34 AM,37.4,28.4,70,30.12,10.0,South,11.5,-,N/A,,Clear,190,2013-01-10 08:34:00
2:54 AM,37.4,28.4,70,30.11,10.0,South,12.7,-,N/A,,Clear,190,2013-01-10 08:54:00
3:14 AM,37.4,28.4,70,30.10,10.0,South,13.8,-,N/A,,Clear,190,2013-01-10 09:14:00
3:33 AM,39.2,28.4,65,30.11,10.0,South,13.8,-,N/A,,Clear,180,2013-01-10 09:33:00
3:53 AM,37.4,28.4,70,30.10,10.0,South,13.8,17.3,N/A,,Clear,180,2013-01-10 09:53:00
4:14 AM,37.4,28.4,70,30.09,10.0,South,11.5,-,N/A,,Clear,170,2013-01-10 10:14:00
4:33 AM,37.4,28.4,70,30.09,10.0,South,11.5,-,N/A,,Clear,170,2013-01-10 10:33:00
4:53 AM,37.4,28.4,70,30.09,10.0,South,12.7,17.3,N/A,,Clear,170,2013-01-10 10:53:00
5:33 AM,37.4,28.4,70,30.08,10.0,South,12.7,-,N/A,,Clear,170,2013-01-10 11:33:00
6:13 AM,37.4,28.4,70,30.07,10.0,South,13.8,-,N/A,,Clear,170,2013-01-10 12:13:00
6:34 AM,37.4,28.4,70,30.07,10.0,SSE,13.8,-,N/A,,Clear,160,2013-01-10 12:34:00
6:53 AM,37.4,28.4,70,30.07,10.0,South,15.0,19.6,N/A,,Clear,170,2013-01-10 12:53:00
7:34 AM,37.4,28.4,70,30.06,10.0,SSE,15.0,19.6,N/A,,Clear,160,2013-01-10 13:34:00
7:53 AM,37.4,28.4,70,30.07,10.0,SSE,11.5,19.6,N/A,,Clear,160,2013-01-10 13:53:00
8:13 AM,35.6,28.4,75,30.07,10.0,SSE,12.7,16.1,N/A,,Clear,150,2013-01-10 14:13:00
8:34 AM,35.6,28.4,75,30.08,10.0,SSE,11.5,-,N/A,,Clear,150,2013-01-10 14:34:00
8:53 AM,35.6,26.6,70,30.09,10.0,SSE,12.7,-,N/A,,Clear,160,2013-01-10 14:53:00
9:14 AM,37.4,26.6,65,30.09,10.0,SSE,12.7,-,N/A,,Clear,160,2013-01-10 15:14:00
9:34 AM,37.4,26.6,65,30.08,10.0,SSE,11.5,-,N/A,,Clear,150,2013-01-10 15:34:00
9:54 AM,37.4,28.4,70,30.08,10.0,SSE,12.7,18.4,N/A,,Clear,160,2013-01-10 15:54:00
10:13 AM,39.2,28.4,65,30.06,10.0,SSE,15.0,20.7,N/A,,Clear,160,2013-01-10 16:13:00
10:33 AM,39.2,26.6,61,30.05,10.0,South,13.8,20.7,N/A,,Clear,170,2013-01-10 16:33:00
10:54 AM,39.2,26.6,61,30.03,10.0,South,15.0,21.9,N/A,,Clear,170,2013-01-10 16:54:00
11:14 AM,39.2,24.8,56,30.02,10.0,South,13.8,20.7,N/A,,Clear,170,2013-01-10 17:14:00
11:53 AM,39.2,24.8,56,29.99,10.0,SE,11.5,16.1,N/A,,Clear,140,2013-01-10 17:53:00
12:13 PM,39.2,24.8,56,29.97,10.0,SSE,13.8,-,N/A,,Clear,150,2013-01-10 18:13:00
12:33 PM,39.2,24.8,56,29.95,10.0,SSE,13.8,-,N/A,,Clear,150,2013-01-10 18:33:00
12:54 PM,39.2,24.8,56,29.93,10.0,SSE,12.7,20.7,N/A,,Clear,150,2013-01-10 18:54:00
1:14 PM,39.2,23.0,52,29.91,10.0,SE,11.5,20.7,N/A,,Clear,140,2013-01-10 19:14:00
1:34 PM,39.2,24.8,56,29.88,10.0,SE,12.7,16.1,N/A,,Clear,130,2013-01-10 19:34:00
1:53 PM,39.2,23.0,52,29.88,10.0,SE,15.0,-,N/A,,Clear,140,2013-01-10 19:53:00
2:14 PM,39.2,23.0,52,29.89,10.0,SSE,17.3,25.3,N/A,,Clear,150,2013-01-10 20:14:00
2:33 PM,37.4,24.8,60,29.88,10.0,SSE,18.4,24.2,N/A,,Clear,150,2013-01-10 20:33:00
2:54 PM,37.4,26.6,65,29.88,10.0,SSE,18.4,26.5,N/A,,Scattered Clouds,150,2013-01-10 20:54:00
3:14 PM,37.4,26.6,65,29.87,10.0,SSE,16.1,-,N/A,,Mostly Cloudy,150,2013-01-10 21:14:00
3:34 PM,37.4,28.4,70,29.87,10.0,SSE,17.3,23.0,N/A,,Overcast,150,2013-01-10 21:34:00
3:53 PM,35.6,30.2,81,29.86,3.0,SE,12.7,-,0.03,Rain,Rain,140,2013-01-10 21:53:00
4:14 PM,35.6,32.0,87,29.84,2.5,SE,15.0,19.6,0.05,Rain,Rain,140,2013-01-10 22:14:00
4:34 PM,35.6,32.0,87,29.83,3.0,SE,15.0,19.6,0.08,Rain,Rain,140,2013-01-10 22:34:00
4:54 PM,35.6,32.0,87,29.82,7.0,SE,13.8,-,0.09,Rain,Light Rain,130,2013-01-10 22:54:00
5:14 PM,35.6,32.0,87,29.81,7.0,SE,15.0,-,0.01,Rain,Light Rain,130,2013-01-10 23:14:00
5:34 PM,35.6,30.2,81,29.79,7.0,ESE,15.0,-,0.02,,Overcast,120,2013-01-10 23:34:00
5:54 PM,35.6,30.2,81,29.78,5.0,SE,17.3,-,0.04,Rain,Rain,130,2013-01-10 23:54:00
6:14 PM,35.6,32.0,87,29.76,5.0,SE,17.3,23.0,0.02,,Overcast,130,2013-01-11 00:14:00
6:33 PM,33.8,30.2,87,29.74,5.0,SE,19.6,28.8,0.04,,Overcast,130,2013-01-11 00:33:00
6:54 PM,33.8,30.2,87,29.73,5.0,SE,19.6,26.5,0.05,Snow,Light Snow,130,2013-01-11 00:54:00
7:14 PM,33.8,32.0,93,29.73,5.0,SE,18.4,24.2,0.02,,Overcast,140,2013-01-11 01:14:00
7:34 PM,33.8,32.0,93,29.73,4.0,SE,15.0,-,0.04,,Overcast,130,2013-01-11 01:34:00
7:53 PM,33.8,32.0,93,29.71,5.0,SSE,15.0,-,0.06,,Overcast,150,2013-01-11 01:53:00
8:13 PM,33.8,32.0,93,29.71,3.0,SSE,16.1,21.9,0.04,Rain,Light Rain,150,2013-01-11 02:13:00
8:34 PM,33.8,32.0,93,29.70,5.0,SSE,18.4,21.9,0.04,Rain,Light Rain,150,2013-01-11 02:34:00
8:54 PM,33.8,32.0,93,29.69,4.0,SSE,16.1,23.0,0.05,,Drizzle,150,2013-01-11 02:54:00
9:14 PM,33.8,33.8,100,29.68,1.8,SSE,15.0,19.6,N/A,,Light Drizzle,150,2013-01-11 03:14:00
9:34 PM,33.8,33.8,100,29.67,1.8,SSE,13.8,18.4,N/A,,Overcast,150,2013-01-11 03:34:00
9:54 PM,33.8,33.8,100,29.65,3.0,SE,15.0,18.4,N/A,,Light Drizzle,140,2013-01-11 03:54:00
10:14 PM,33.8,33.8,100,29.64,2.5,SSE,16.1,20.7,N/A,,Overcast,150,2013-01-11 04:14:00
10:34 PM,35.6,33.8,93,29.62,1.8,SE,13.8,-,N/A,,Overcast,140,2013-01-11 04:34:00
10:54 PM,35.6,33.8,93,29.62,1.8,SE,12.7,17.3,N/A,,Overcast,140,2013-01-11 04:54:00
11:14 PM,35.6,33.8,93,29.61,2.0,SSE,12.7,-,N/A,,Overcast,150,2013-01-11 05:14:00
11:34 PM,35.6,33.8,93,29.59,2.0,SE,13.8,20.7,N/A,,Overcast,140,2013-01-11 05:34:00
11:54 PM,35.6,33.8,93,29.59,2.5,SSE,11.5,16.1,N/A,,Overcast,150,2013-01-11 05:54:00